ADDS METAR Data INFO
IDs: Format: Raw Decoded Include TAF

Data at: 1957 UTC 15 Dec 2017

KLDM 151955Z AUTO 31010G16KT 10SM BKN028 OVC033 M05/M11 A2979 RMK AO2 T10461107
KLDM 151935Z AUTO 28010G16KT 10SM OVC030 M04/M10 A2979 RMK AO2 T10451104
KLDM 151915Z AUTO 29011G19KT 10SM OVC028 M04/M11 A2979 RMK AO2 T10451108
KLDM 151855Z AUTO 30007KT 10SM OVC028 M04/M10 A2979 RMK AO2 T10451105
KLDM 151835Z AUTO 28006G14KT 10SM OVC028 M04/M11 A2979 RMK AO2 T10451110
KLDM 151815Z AUTO 30010G15KT 10SM SCT025 OVC031 M04/M11 A2979 RMK AO2 T10451109
KLDM 151755Z AUTO 28008G16KT 10SM -SN OVC025 M05/M10 A2979 RMK AO2 T10471098 11045 21050
KLDM 151735Z AUTO 31011G15KT 260V320 10SM -SN OVC027 M05/M10 A2979 RMK AO2 T10471101
KLDM 151715Z AUTO 29009KT 10SM -SN OVC029 M05/M11 A2979 RMK AO2 T10471106
KLDM 151655Z AUTO 29008G17KT 10SM OVC027 M05/M11 A2979 RMK AO2 T10471106
KLDM 151635Z AUTO 31008KT 10SM -SN OVC027 M05/M10 A2980 RMK AO2 T10471103
KLDM 151615Z AUTO 31008G16KT 10SM -SN BKN027 OVC031 M05/M10 A2980 RMK AO2 T10491104
KLDM 151555Z AUTO 30009G16KT 270V330 10SM -SN OVC027 M05/M10 A2980 RMK AO2 T10501103
KLDM 151535Z AUTO 30010G15KT 10SM OVC025 M05/M10 A2979 RMK AO2 T10481102
KLDM 151515Z AUTO 30009G15KT 7SM -SN OVC025 M05/M10 A2979 RMK AO2 T10471098
KLDM 151455Z AUTO 31009G16KT 7SM -SN OVC025 M05/M10 A2979 RMK AO2 T10481098
KLDM 151435Z AUTO 29009G18KT 10SM OVC027 M05/M10 A2979 RMK AO2 T10471101
KLDM 151415Z AUTO 30012G17KT 10SM OVC027 M05/M10 A2978 RMK AO2 T10471100
KLDM 151355Z AUTO 29013G19KT 10SM SCT019 OVC027 M05/M10 A2979 RMK AO2 T10471099
KLDM 151335Z AUTO 30010G18KT 2 1/2SM -SN SCT019 BKN025 OVC036 M05/M09 A2979 RMK AO2 T10491092
KLDM 151315Z AUTO 30010G16KT 270V330 7SM -SN SCT007 BKN019 OVC034 M05/M08 A2979 RMK AO2 T10471085
KLDM 151255Z AUTO 29009G14KT 1 1/4SM -SN BKN005 BKN008 OVC015 M05/M07 A2979 RMK AO2 T10501067
KLDM 151235Z AUTO 29011G17KT 3/4SM SN BKN003 OVC011 M05/M06 A2979 RMK AO2 T10491064
KLDM 151215Z AUTO 28012G18KT 2SM -SN OVC013 M04/M07 A2979 RMK AO2 T10451070
KLDM 151155Z AUTO 28011G19KT 1 1/4SM -SN OVC011 M05/M07 A2979 RMK AO2 T10461066 11025 21046
KLDM 151135Z AUTO 29008G17KT 3/4SM SN OVC010 M04/M06 A2979 RMK AO2 T10441061
KLDM 151115Z AUTO 29008G15KT 3/4SM SN OVC010 M04/M05 A2979 RMK AO2 T10401055
KLDM 151055Z AUTO 29006KT 1SM SN OVC012 M04/M05 A2979 RMK AO2 T10371053
KLDM 151035Z AUTO 29009G16KT 1 1/4SM -SN OVC012 M03/M05 A2979 RMK AO2 T10351055
KLDM 151015Z AUTO 28010G16KT 240V310 1 1/4SM -SN OVC010 M03/M05 A2980 RMK AO2 T10341052
KLDM 150955Z AUTO 26009G16KT 2SM -SN SCT008 BKN014 OVC022 M03/M05 A2981 RMK AO2 T10301055
KLDM 150935Z AUTO 25011G16KT 3SM -SN BKN021 OVC026 M03/M07 A2982 RMK AO2 T10301067
KLDM 150915Z AUTO 24013KT 7SM -SN BKN028 OVC034 M02/M08 A2983 RMK AO2 T10251078
KLDM 150855Z AUTO 25011G18KT 7SM -SN BKN028 OVC036 M03/M08 A2983 RMK AO2 T10261081
KLDM 150835Z AUTO 24011G18KT 7SM -SN BKN028 OVC034 M03/M08 A2984 RMK AO2 T10291079
KLDM 150815Z AUTO 24009G16KT 10SM OVC032 M03/M08 A2985 RMK AO2 T10271085
KLDM 150755Z AUTO 24012G16KT 10SM -SN BKN030 OVC036 M03/M09 A2986 RMK AO2 T10291088
KLDM 150735Z AUTO 26007G14KT 10SM OVC030 M03/M09 A2987 RMK AO2 T10281087
KLDM 150715Z AUTO 25010G14KT 10SM -SN OVC028 M03/M08 A2988 RMK AO2 T10301085
KLDM 150655Z AUTO 24011G15KT 7SM -SN SCT024 BKN029 OVC034 M03/M08 A2989 RMK AO2 T10321079
KLDM 150635Z AUTO 25008KT 7SM -SN SCT022 BKN027 OVC036 M03/M08 A2990 RMK AO2 T10331076
KLDM 150615Z AUTO 25007KT 5SM -SN BKN025 OVC037 M03/M08 A2991 RMK AO2 T10351079
KLDM 150555Z AUTO 26006KT 10SM -SN SCT022 SCT028 OVC037 M03/M08 A2992 RMK AO2 T10351080 11035 21056 410351106
KLDM 150535Z AUTO 27003KT 5SM -SN SCT020 BKN028 OVC043 M04/M08 A2993 RMK AO2 T10381076
KLDM 150515Z AUTO 26007KT 7SM -SN SCT021 SCT026 OVC043 M04/M08 A2995 RMK AO2 T10361085
KLDM 150455Z AUTO 27004KT 7SM -SN BKN026 BKN037 OVC044 M04/M09 A2995 RMK AO2 T10371087
KLDM 150435Z AUTO 27006KT 7SM -SN BKN030 OVC034 M04/M09 A2996 RMK AO2 T10361093
KLDM 150415Z AUTO 27003KT 10SM -SN OVC028 M04/M09 A2996 RMK AO2 T10361091
KLDM 150355Z AUTO 28005KT 10SM OVC028 M04/M09 A2997 RMK AO2 T10361092
KLDM 150335Z AUTO 29007KT 240V310 10SM OVC028 M04/M09 A2997 RMK AO2 T10371095
KLDM 150315Z AUTO 30008KT 10SM OVC030 M04/M09 A2998 RMK AO2 T10391095
KLDM 150255Z AUTO 28007KT 10SM BKN030 OVC037 M04/M10 A2999 RMK AO2 T10391098
KLDM 150235Z AUTO 29008KT 10SM OVC032 M04/M10 A2999 RMK AO2 T10401102
KLDM 150215Z AUTO 26005KT 10SM BKN032 OVC038 M04/M10 A3000 RMK AO2 T10401103
KLDM 150155Z AUTO 29005KT 10SM OVC030 M04/M10 A3000 RMK AO2 T10431103
KLDM 150135Z AUTO 31006KT 10SM BKN030 OVC034 M04/M10 A3001 RMK AO2 T10451100
KLDM 150115Z AUTO 29005KT 10SM OVC030 M04/M10 A3001 RMK AO2 T10451102
KLDM 150055Z AUTO 31004KT 10SM OVC030 M05/M11 A3001 RMK AO2 T10461107
KLDM 150035Z AUTO 00000KT 10SM OVC030 M05/M11 A3001 RMK AO2 T10481107
KLDM 150015Z AUTO 28003KT 10SM OVC032 M05/M12 A3001 RMK AO2 T10531116
KLDM 142355Z AUTO 30003KT 10SM BKN030 OVC035 M06/M12 A3001 RMK AO2 T10561116 11042 21060
KLDM 142335Z AUTO 00000KT 10SM OVC030 M05/M11 A3001 RMK AO2 T10551113
KLDM 142315Z AUTO 27003KT 10SM OVC030 M06/M11 A3001 RMK AO2 T10561112
KLDM 142255Z AUTO 31005KT 10SM OVC030 M06/M12 A3001 RMK AO2 T10571117
KLDM 142235Z AUTO 00000KT 10SM OVC028 M06/M11 A3001 RMK AO2 T10561112
KLDM 142215Z AUTO 00000KT 10SM BKN028 M06/M11 A3001 RMK AO2 T10561112
KLDM 142155Z AUTO 30003KT 10SM BKN028 BKN033 M06/M12 A3001 RMK AO2 T10601120
KLDM 142135Z AUTO 25003KT 10SM OVC028 M06/M12 A3001 RMK AO2 T10561119
KLDM 142115Z AUTO 28006KT 10SM OVC028 M05/M11 A3000 RMK AO2 T10551111
KLDM 142055Z AUTO 26005KT 10SM OVC028 M06/M12 A3001 RMK AO2 T10571117
KLDM 142035Z AUTO 27005KT 10SM OVC028 M05/M11 A3001 RMK AO2 T10551114
KLDM 142016Z AUTO 29005KT 10SM OVC028 M05/M11 A3001 RMK AO2 T10531115
KLDM 141955Z AUTO 25006KT 10SM OVC026 M05/M11 A3001 RMK AO2 T10521110
KLDM 141935Z AUTO 26006KT 10SM OVC024 M05/M10 A3000 RMK AO2 T10501102
KLDM 141915Z AUTO 27005KT 10SM OVC026 M05/M11 A3000 RMK AO2 T10501110
KLDM 141855Z AUTO 25006KT 10SM OVC026 M05/M10 A3000 RMK AO2 T10491105
KLDM 141835Z AUTO 26004KT 10SM OVC028 M05/M11 A3000 RMK AO2 T10471112
KLDM 141815Z AUTO 28006KT 10SM OVC028 M05/M11 A3000 RMK AO2 T10471106
KLDM 141755Z AUTO 27005KT 10SM OVC028 M05/M10 A3000 RMK AO2 T10471105 11044 21106
KLDM 141735Z AUTO 30007KT 10SM OVC030 M04/M10 A3001 RMK AO2 T10451100
KLDM 141715Z AUTO 33005KT 7SM -SN OVC030 M05/M09 A3001 RMK AO2 T10481095
KLDM 141655Z AUTO 31007KT 7SM -SN OVC032 M05/M09 A3001 RMK AO2 T10471093
KLDM 141635Z AUTO 34004KT 10SM OVC032 M05/M10 A3002 RMK AO2 T10461102
KLDM 141615Z AUTO 32008KT 4SM -SN SCT029 OVC037 M05/M09 A3002 RMK AO2 T10481095
KLDM 141555Z AUTO 29005KT 10SM OVC035 M05/M10 A3002 RMK AO2 T10481097
KLDM 141535Z AUTO 00000KT 10SM OVC033 M07/M09 A3002 RMK AO2 T10691095
KLDM 141515Z AUTO 00000KT 10SM OVC033 M08/M10 A3001 RMK AO2 T10821100
KLDM 141455Z AUTO 00000KT 10SM -SN OVC029 M08/M10 A3000 RMK AO2 T10851101
KLDM 141435Z AUTO 00000KT 10SM -SN BKN027 OVC032 M08/M10 A2999 RMK AO2 T10851103
KLDM 141415Z AUTO 00000KT 10SM -SN OVC030 M09/M10 A2997 RMK AO2 T10861102
KLDM 141355Z AUTO 00000KT 10SM OVC030 M09/M10 A2996 RMK AO2 T10891105
KLDM 141335Z AUTO 00000KT 10SM OVC032 M09/M10 A2995 RMK AO2 T10901105
KLDM 141315Z AUTO 00000KT 10SM OVC030 M09/M10 A2995 RMK AO2 T10921105
KLDM 141255Z AUTO 00000KT 10SM -SN OVC036 M10/M11 A2995 RMK AO2 T11001112
KLDM 141235Z AUTO 00000KT 10SM OVC036 M10/M11 A2994 RMK AO2 T10991111
KLDM 141215Z AUTO 00000KT 10SM OVC036 M10/M11 A2992 RMK AO2 T10971109
KLDM 141155Z AUTO 00000KT 7SM -SN SCT015 SCT020 OVC036 M10/M11 A2992 RMK AO2 T10961109 11083 21101
KLDM 141135Z AUTO 00000KT 1 1/4SM -SN BKN008 OVC014 M09/M10 A2991 RMK AO2 T10921105
KLDM 141115Z AUTO 00000KT 1SM SN BKN006 OVC013 M09/M11 A2990 RMK AO2 T10951107
KLDM 141055Z AUTO 00000KT 1 1/4SM -SN BKN006 BKN014 OVC019 M10/M11 A2990 RMK AO2 T10981111
KLDM 141035Z AUTO 00000KT 1 1/2SM -SN BKN007 BKN011 OVC019 M09/M11 A2990 RMK AO2 T10941107
KLDM 141015Z AUTO 00000KT 1 1/2SM -SN SCT007 BKN013 OVC023 M10/M11 A2989 RMK AO2 T10961111
KLDM 140955Z AUTO 00000KT 7SM -SN SCT019 BKN030 OVC042 M09/M11 A2989 RMK AO2 T10941110
KLDM 140935Z AUTO 00000KT 2 1/2SM -SN SCT013 BKN024 OVC044 M09/M11 A2987 RMK AO2 VIS 1 1/2V5 T10921109
KLDM 140916Z AUTO 00000KT 4SM -SN SCT016 BKN031 OVC044 M09/M11 A2986 RMK AO2 T10911113
KLDM 140855Z AUTO 00000KT 2 1/2SM -SN SCT016 BKN031 OVC042 M09/M11 A2985 RMK AO2 VIS 1V5 T10911113
KLDM 140835Z AUTO 00000KT 7SM -SN SCT022 SCT026 OVC042 M09/M11 A2984 RMK AO2 T10871112
KLDM 140815Z AUTO 06003KT 5SM -SN SCT026 BKN034 OVC042 M08/M11 A2984 RMK AO2 T10841115